Manila Express — VRCX7 — position and weather

sailwx.info

Track history (hours):
 
Tides and Currents Weather Stations Pressure Air Temp Water Temp Dewpoint Dewpoint Depression Visibility Wind Speed Wind Dir Waves Ship Positions

Manila Express

Last reported at 2015-Mar-16 19:07 UTC. Time now 2015-Mar-27 20:57 UTC.
Position N 01°50' E 102°33'.
Warning: this ship's position is 11 days out of date.

Length 260 m; draft 12.3 m.

Type: Ship (hazmat cat A). MMSI: 477830800.

Date/timePositionNaut miles runAvg speedWind from/ knotsBaromVisibWave heightAir tempDewpointWater temp
2015-Mar-16 19:07N 01°50' E 102°33'1219.5
2015-Mar-16 18:31N 01°45' E 102°43'7418.7
2015-Mar-16 14:32N 01°11' E 103°50'5 1.6
2015-Mar-16 11:14N 01°16' E 103°51'0 0.0
2015-Mar-16 10:20N 01°16' E 103°51'0 0.0
2015-Mar-16 09:29N 01°16' E 103°51'0 0.0
2015-Mar-16 07:20N 01°16' E 103°51'0 0.0
2015-Mar-16 06:32N 01°16' E 103°51'0 0.0
2015-Mar-16 05:29N 01°16' E 103°51'0 0.0
2015-Mar-16 04:32N 01°16' E 103°51'0 0.0
2015-Mar-16 03:26N 01°16' E 103°51'0 0.0
2015-Mar-16 02:32N 01°16' E 103°51'0 0.0
2015-Mar-15 21:32N 01°16' E 103°51'0 0.0
2015-Mar-15 20:07N 01°16' E 103°51'1 1.8
2015-Mar-15 19:34N 01°15' E 103°52'3 3.3
2015-Mar-15 18:33N 01°14' E 103°55'7 6.6
2015-Mar-15 17:32N 01°16' E 104°01'8 8.0
2015-Mar-15 16:31N 01°17' E 104°09'  
2015-Mar-11 14:22S 19°06' E 109°12'34816.6
2015-Mar-10 17:26S 24°37' E 111°08'14417.4
2015-Mar-10 09:08S 26°54' E 111°58'1316.6
2015-Mar-10 08:21S 27°07' E 112°02'1916.9
2015-Mar-10 07:13S 27°25' E 112°09'1116.9
2015-Mar-10 06:33S 27°36' E 112°13'1817.1
2015-Mar-10 05:30S 27°53' E 112°19'1617.2
2015-Mar-10 04:33S 28°08' E 112°25'3517.3
2015-Mar-10 02:31S 28°42' E 112°38'8716.3
2015-Mar-09 21:09S 30°04' E 113°11'1017.4
2015-Mar-09 20:33S 30°11' E 113°20'5417.6
2015-Mar-09 17:31S 30°47' E 114°06'1717.2
2015-Mar-09 16:33S 30°59' E 114°20'1716.8
2015-Mar-09 15:33S 31°10' E 114°35'1716.8
2015-Mar-09 14:33S 31°21' E 114°49'1717.2
2015-Mar-09 13:33S 31°33' E 115°04'1717.3
2015-Mar-09 12:33S 31°43' E 115°20'1414.4
2015-Mar-09 11:33S 31°52' E 115°34'0 0.1
2015-Mar-09 10:32S 31°52' E 115°34'0 0.0
2015-Mar-09 09:32S 31°52' E 115°34'0 0.0
2015-Mar-09 08:32S 31°52' E 115°34'0 0.0
2015-Mar-09 07:32S 31°52' E 115°34'0 0.0
2015-Mar-09 06:32S 31°52' E 115°34'0 0.0
2015-Mar-09 05:32S 31°52' E 115°34'0 0.0
2015-Mar-09 04:32S 31°52' E 115°34'0 0.0
2015-Mar-09 03:32S 31°52' E 115°34'1 0.8
2015-Mar-09 02:33S 31°52' E 115°33'  
Track history (hours):
 
Tides and Currents Weather Stations Pressure Air Temp Water Temp Dewpoint Dewpoint Depression Visibility Wind Speed Wind Dir Waves Ship Positions

Manila Express

Last reported at 2015-Mar-16 19:07 UTC. Time now 2015-Mar-27 20:57 UTC.
Position N 01°50' E 102°33'.
Warning: this ship's position is 11 days out of date.

Length 260 m; draft 12.3 m.

Type: Ship (hazmat cat A). MMSI: 477830800.

Date/timePositionNaut miles runAvg speedWind from/ knotsBaromVisibWave heightAir tempDewpointWater temp
2015-Mar-16 19:07N 01°50' E 102°33'1219.5
2015-Mar-16 18:31N 01°45' E 102°43'7418.7
2015-Mar-16 14:32N 01°11' E 103°50'5 1.6
2015-Mar-16 11:14N 01°16' E 103°51'0 0.0
2015-Mar-16 10:20N 01°16' E 103°51'0 0.0
2015-Mar-16 09:29N 01°16' E 103°51'0 0.0
2015-Mar-16 07:20N 01°16' E 103°51'0 0.0
2015-Mar-16 06:32N 01°16' E 103°51'0 0.0
2015-Mar-16 05:29N 01°16' E 103°51'0 0.0
2015-Mar-16 04:32N 01°16' E 103°51'0 0.0
2015-Mar-16 03:26N 01°16' E 103°51'0 0.0
2015-Mar-16 02:32N 01°16' E 103°51'0 0.0
2015-Mar-15 21:32N 01°16' E 103°51'0 0.0
2015-Mar-15 20:07N 01°16' E 103°51'1 1.8
2015-Mar-15 19:34N 01°15' E 103°52'3 3.3
2015-Mar-15 18:33N 01°14' E 103°55'7 6.6
2015-Mar-15 17:32N 01°16' E 104°01'8 8.0
2015-Mar-15 16:31N 01°17' E 104°09'  
2015-Mar-11 14:22S 19°06' E 109°12'34816.6
2015-Mar-10 17:26S 24°37' E 111°08'14417.4
2015-Mar-10 09:08S 26°54' E 111°58'1316.6
2015-Mar-10 08:21S 27°07' E 112°02'1916.9
2015-Mar-10 07:13S 27°25' E 112°09'1116.9
2015-Mar-10 06:33S 27°36' E 112°13'1817.1
2015-Mar-10 05:30S 27°53' E 112°19'1617.2
2015-Mar-10 04:33S 28°08' E 112°25'3517.3
2015-Mar-10 02:31S 28°42' E 112°38'8716.3
2015-Mar-09 21:09S 30°04' E 113°11'1017.4
2015-Mar-09 20:33S 30°11' E 113°20'5417.6
2015-Mar-09 17:31S 30°47' E 114°06'1717.2
2015-Mar-09 16:33S 30°59' E 114°20'1716.8
2015-Mar-09 15:33S 31°10' E 114°35'1716.8
2015-Mar-09 14:33S 31°21' E 114°49'1717.2
2015-Mar-09 13:33S 31°33' E 115°04'1717.3
2015-Mar-09 12:33S 31°43' E 115°20'1414.4
2015-Mar-09 11:33S 31°52' E 115°34'0 0.1
2015-Mar-09 10:32S 31°52' E 115°34'0 0.0
2015-Mar-09 09:32S 31°52' E 115°34'0 0.0
2015-Mar-09 08:32S 31°52' E 115°34'0 0.0
2015-Mar-09 07:32S 31°52' E 115°34'0 0.0
2015-Mar-09 06:32S 31°52' E 115°34'0 0.0
2015-Mar-09 05:32S 31°52' E 115°34'0 0.0
2015-Mar-09 04:32S 31°52' E 115°34'0 0.0
2015-Mar-09 03:32S 31°52' E 115°34'1 0.8
2015-Mar-09 02:33S 31°52' E 115°33'  

Dump ship's entire track history